Time;durP1;ratioP1;P1;durP2;ratioP2;P2;SDS_P1;SDS_P2;PMS_P1;PMS_P2;Temp;Humidity;BMP_temperature;BMP_pressure;BME280_temperature;BME280_humidity;BME280_pressure;Samples;Min_cycle;Max_cycle;Signal;HPM_P1;HPM_P2
2022/01/18 00:00:34;;;;;;;7.80;3.50;;;;;;;-1.63;76.47;97456.48;107474;1271;32991;-73
2022/01/18 00:03:17;;;;;;;11.80;3.60;;;;;;;-1.65;76.78;97462.04;107463;1270;38955;-73
2022/01/18 00:05:50;;;;;;;14.40;3.80;;;;;;;-1.67;76.94;97456.20;107467;1271;32770;-73
2022/01/18 00:08:21;;;;;;;11.90;4.00;;;;;;;-1.66;76.63;97465.17;107497;1271;32640;-73
2022/01/18 00:10:51;;;;;;;8.20;3.80;;;;;;;-1.66;76.83;97462.58;107359;1271;47059;-73
2022/01/18 00:13:38;;;;;;;10.20;4.00;;;;;;;-1.67;77.03;97467.84;107447;1270;45067;-73
2022/01/18 00:16:25;;;;;;;8.30;3.80;;;;;;;-1.67;76.75;97465.38;107391;1271;33892;-73
2022/01/18 00:19:00;;;;;;;6.90;3.40;;;;;;;-1.65;76.72;97468.96;107396;1271;30520;-73
2022/01/18 00:21:37;;;;;;;9.10;4.50;;;;;;;-1.66;76.97;97479.83;107512;1271;41703;-73
2022/01/18 00:24:11;;;;;;;13.90;4.70;;;;;;;-1.66;77.15;97480.97;107496;1271;31740;-73
2022/01/18 00:26:42;;;;;;;12.50;4.00;;;;;;;-1.66;76.99;97474.17;107364;1271;41163;-73
2022/01/18 00:29:16;;;;;;;11.90;4.20;;;;;;;-1.64;76.64;97481.07;107391;1271;40092;-73
2022/01/18 00:34:41;;;;;;;12.10;4.90;;;;;;;-1.63;76.56;97503.32;107439;1271;32219;-73
2022/01/18 00:39:57;;;;;;;7.70;3.40;;;;;;;-1.66;77.17;97506.86;107367;1271;37006;-73
2022/01/18 00:42:28;;;;;;;10.90;3.90;;;;;;;-1.67;77.30;97512.75;107457;1271;46245;-73
2022/01/18 00:44:59;;;;;;;12.80;4.40;;;;;;;-1.69;77.76;97508.28;107482;1271;39496;-73
2022/01/18 00:47:30;;;;;;;21.80;5.10;;;;;;;-1.70;78.03;97503.41;107441;1271;46429;-73
2022/01/18 00:50:03;;;;;;;13.00;4.90;;;;;;;-1.73;78.27;97512.25;107523;1270;30088;-73
2022/01/18 00:52:39;;;;;;;10.20;3.60;;;;;;;-1.74;78.33;97518.40;107406;1271;37979;-73
2022/01/18 00:55:14;;;;;;;12.80;3.50;;;;;;;-1.75;78.10;97521.47;107438;1270;38520;-73
2022/01/18 00:57:47;;;;;;;9.60;3.10;;;;;;;-1.77;78.43;97527.48;107404;1271;41193;-73
2022/01/18 01:00:20;;;;;;;9.30;3.00;;;;;;;-1.82;79.02;97522.91;107362;1271;40902;-73
2022/01/18 01:02:51;;;;;;;8.00;2.50;;;;;;;-1.83;79.09;97531.73;107447;1271;35954;-73
2022/01/18 01:05:22;;;;;;;10.50;4.10;;;;;;;-1.84;78.94;97522.27;107450;1271;37367;-73
2022/01/18 01:07:52;;;;;;;10.10;4.00;;;;;;;-1.82;78.51;97531.06;107423;1270;40824;-73
2022/01/18 01:10:24;;;;;;;10.40;4.30;;;;;;;-1.82;78.95;97544.58;107426;1271;32432;-73
2022/01/18 01:12:54;;;;;;;9.50;3.10;;;;;;;-1.84;79.08;97542.69;107454;1271;41133;-73
2022/01/18 01:15:27;;;;;;;6.70;3.40;;;;;;;-1.85;79.47;97536.45;107449;1270;31454;-73
2022/01/18 01:18:12;;;;;;;11.80;3.50;;;;;;;-1.87;79.83;97543.28;107431;1271;42391;-73
2022/01/18 01:32:51;;;;;;;13.70;4.80;;;;;;;-1.90;80.13;97561.83;107421;1270;38531;-74
2022/01/18 01:35:37;;;;;;;8.90;3.80;;;;;;;-1.90;80.01;97552.64;107360;1270;39073;-73
2022/01/18 01:44:02;;;;;;;7.30;3.40;;;;;;;-1.97;80.69;97566.24;107415;1271;31989;-73
2022/01/18 01:46:34;;;;;;;9.30;3.80;;;;;;;-1.99;81.19;97569.65;107461;1270;36475;-74
2022/01/18 01:49:09;;;;;;;9.10;4.30;;;;;;;-2.00;81.27;97577.92;107405;1270;36246;-74
2022/01/18 01:51:40;;;;;;;7.30;3.10;;;;;;;-2.02;81.49;97568.73;107457;1270;41195;-74
2022/01/18 01:54:13;;;;;;;14.40;3.70;;;;;;;-2.05;81.76;97576.02;107424;1270;39935;-74
2022/01/18 01:56:43;;;;;;;11.00;4.30;;;;;;;-2.06;81.81;97575.60;107394;1271;33628;-74
2022/01/18 01:59:14;;;;;;;10.30;3.80;;;;;;;-2.08;81.78;97565.98;107376;1271;37067;-74
2022/01/18 02:01:48;;;;;;;15.10;4.70;;;;;;;-2.11;81.96;97564.53;107472;1269;34775;-73
2022/01/18 02:04:20;;;;;;;3.70;2.40;;;;;;;-2.12;82.04;97562.97;107569;1270;42466;-74
2022/01/18 02:06:51;;;;;;;7.10;2.90;;;;;;;-2.14;82.23;97567.50;107380;1271;42493;-74
2022/01/18 02:09:22;;;;;;;11.30;3.20;;;;;;;-2.12;82.50;97564.83;107458;1271;39363;-74
2022/01/18 02:11:56;;;;;;;11.60;3.60;;;;;;;-2.10;82.69;97560.32;107451;1270;39952;-74
2022/01/18 02:14:31;;;;;;;10.20;3.80;;;;;;;-2.08;82.64;97551.92;107415;1270;33896;-74
2022/01/18 02:22:40;;;;;;;9.20;2.80;;;;;;;-2.12;83.12;97554.40;107464;1270;37999;-74
2022/01/18 02:25:11;;;;;;;6.90;3.20;;;;;;;-2.13;83.03;97552.81;107341;1270;35199;-74
2022/01/18 02:27:42;;;;;;;14.50;4.10;;;;;;;-2.13;83.07;97544.30;107482;1271;34588;-74
2022/01/18 02:30:14;;;;;;;9.20;2.70;;;;;;;-2.14;83.01;97541.16;107537;1270;31206;-74
2022/01/18 02:32:44;;;;;;;12.30;3.30;;;;;;;-2.15;82.76;97539.75;107460;1270;40974;-74
2022/01/18 02:35:15;;;;;;;6.90;2.80;;;;;;;-2.17;82.91;97536.04;107348;1271;37464;-74
2022/01/18 02:37:53;;;;;;;12.70;3.70;;;;;;;-2.20;82.76;97541.87;107340;1270;40358;-74
2022/01/18 02:40:24;;;;;;;13.00;3.10;;;;;;;-2.21;82.98;97548.73;107452;1270;36716;-74
2022/01/18 02:43:46;;;;;;;8.70;3.00;;;;;;;-2.20;82.95;97551.98;107448;1271;31350;-74
2022/01/18 02:45:50;;;;;;;9.00;3.50;;;;;;;-2.19;83.05;97555.51;107395;1271;32584;-74
2022/01/18 02:48:21;;;;;;;13.70;4.70;;;;;;;-2.21;83.07;97550.09;107413;1271;41236;-74
2022/01/18 02:50:53;;;;;;;13.80;3.90;;;;;;;-2.22;83.26;97544.67;107330;1270;169625;-74
2022/01/18 02:53:24;;;;;;;5.60;2.70;;;;;;;-2.22;83.31;97546.96;107415;1271;39661;-73
2022/01/18 02:55:56;;;;;;;10.10;3.70;;;;;;;-2.22;83.42;97542.71;107453;1270;36851;-74
2022/01/18 02:58:30;;;;;;;12.70;2.50;;;;;;;-2.25;83.49;97543.15;107484;1270;40770;-74
2022/01/18 03:03:49;;;;;;;6.70;2.50;;;;;;;-2.27;83.77;97550.36;107392;1271;40235;-74
2022/01/18 03:06:20;;;;;;;6.80;2.30;;;;;;;-2.27;83.71;97559.16;107388;1270;41744;-73
2022/01/18 03:08:51;;;;;;;9.50;3.60;;;;;;;-2.27;83.82;97565.16;107470;1270;36093;-73
2022/01/18 03:11:22;;;;;;;9.00;3.20;;;;;;;-2.26;83.93;97568.73;107467;1269;37480;-74
2022/01/18 03:13:53;;;;;;;8.40;3.50;;;;;;;-2.26;83.93;97567.68;107427;1270;32511;-73
2022/01/18 03:16:23;;;;;;;10.20;2.60;;;;;;;-2.26;83.83;97556.94;107427;1269;44198;-73
2022/01/18 03:18:54;;;;;;;6.30;2.30;;;;;;;-2.25;83.78;97562.59;107470;1270;31841;-73
2022/01/18 03:21:25;;;;;;;5.70;2.80;;;;;;;-2.27;83.81;97580.41;107444;1270;40538;-73
2022/01/18 03:24:11;;;;;;;8.40;3.40;;;;;;;-2.29;83.85;97579.39;107430;1270;41109;-73
2022/01/18 03:29:42;;;;;;;12.20;3.80;;;;;;;-2.28;83.98;97581.44;107444;1270;41418;-74
2022/01/18 03:32:13;;;;;;;15.70;3.10;;;;;;;-2.29;84.07;97586.86;107527;1270;32988;-73
2022/01/18 03:34:44;;;;;;;4.80;2.20;;;;;;;-2.29;84.14;97586.05;107409;1270;40465;-73
2022/01/18 03:37:15;;;;;;;9.80;3.80;;;;;;;-2.31;84.23;97586.50;107401;1270;38170;-73
2022/01/18 03:39:46;;;;;;;6.70;2.80;;;;;;;-2.31;84.26;97587.18;107458;1270;35037;-73
2022/01/18 03:45:15;;;;;;;8.80;2.80;;;;;;;-2.30;84.42;97602.27;107359;1269;42599;-73
2022/01/18 03:47:47;;;;;;;9.70;3.30;;;;;;;-2.30;84.54;97597.55;107388;1269;38251;-73
2022/01/18 03:50:19;;;;;;;3.20;2.40;;;;;;;-2.30;84.75;97597.91;107480;1270;44936;-73
2022/01/18 03:52:52;;;;;;;9.90;2.70;;;;;;;-2.30;84.79;97598.42;107379;1270;41103;-73
2022/01/18 03:55:24;;;;;;;10.70;3.90;;;;;;;-2.31;84.91;97589.97;107427;1269;44132;-73
2022/01/18 03:57:54;;;;;;;11.50;3.10;;;;;;;-2.31;84.96;97584.38;107495;1270;33706;-73
2022/01/18 04:00:27;;;;;;;9.80;2.50;;;;;;;-2.32;85.04;97585.83;107449;1270;35811;-73
2022/01/18 04:02:59;;;;;;;57.40;6.00;;;;;;;-2.32;85.16;97611.11;107459;1270;41076;-73
2022/01/18 04:05:29;;;;;;;5.90;2.80;;;;;;;-2.32;85.27;97604.70;107586;1271;38994;-73
2022/01/18 04:08:00;;;;;;;10.30;3.80;;;;;;;-2.33;85.15;97604.82;107516;1270;41244;-73
2022/01/18 04:10:31;;;;;;;15.20;4.20;;;;;;;-2.34;85.41;97613.78;107459;1270;48509;-73
2022/01/18 04:13:02;;;;;;;7.80;3.40;;;;;;;-2.37;85.39;97596.87;107492;1271;38424;-73
2022/01/18 04:15:34;;;;;;;5.90;3.10;;;;;;;-2.40;85.43;97605.44;107553;1269;34272;-73
2022/01/18 04:18:17;;;;;;;10.90;3.80;;;;;;;-2.41;85.50;97601.02;107493;1270;34620;-73
2022/01/18 04:26:57;;;;;;;8.20;4.00;;;;;;;-2.43;85.44;97612.14;107474;1270;36431;-73
2022/01/18 04:29:28;;;;;;;5.60;3.30;;;;;;;-2.43;85.36;97610.65;107464;1270;38041;-73
2022/01/18 04:31:59;;;;;;;11.00;3.80;;;;;;;-2.46;85.61;97618.85;107502;1270;36217;-73
2022/01/18 04:34:30;;;;;;;14.00;4.00;;;;;;;-2.49;85.58;97620.30;107406;1270;46253;-73
2022/01/18 04:37:00;;;;;;;8.70;3.20;;;;;;;-2.52;85.59;97626.16;107535;1270;31916;-73
2022/01/18 04:39:36;;;;;;;4.00;2.40;;;;;;;-2.51;85.24;97634.73;107518;1270;39306;-73
2022/01/18 04:42:16;;;;;;;5.10;2.40;;;;;;;-2.50;85.15;97640.69;107453;1270;29798;-73
2022/01/18 04:50:20;;;;;;;13.30;4.40;;;;;;;-2.58;85.07;97649.11;107502;1270;33459;-73
2022/01/18 04:52:51;;;;;;;10.90;4.00;;;;;;;-2.58;84.94;97638.21;107413;1270;40776;-73
2022/01/18 04:55:21;;;;;;;9.70;3.10;;;;;;;-2.58;84.86;97647.30;107495;1270;41041;-72
2022/01/18 04:57:53;;;;;;;11.20;3.40;;;;;;;-2.60;85.01;97653.51;107475;1270;32791;-73
2022/01/18 05:00:25;;;;;;;6.80;3.80;;;;;;;-2.61;84.88;97656.36;107489;1270;42896;-73
2022/01/18 05:02:56;;;;;;;5.80;2.60;;;;;;;-2.60;84.85;97655.81;107486;1270;31895;-73
2022/01/18 05:05:29;;;;;;;10.00;3.70;;;;;;;-2.60;84.99;97658.02;107445;1270;34191;-73
2022/01/18 05:08:02;;;;;;;5.10;2.70;;;;;;;-2.60;84.97;97654.90;107452;1269;48185;-73
2022/01/18 05:10:33;;;;;;;8.00;2.50;;;;;;;-2.59;84.95;97662.82;107563;1270;40540;-73
2022/01/18 05:13:13;;;;;;;4.50;3.20;;;;;;;-2.60;84.94;97673.11;107535;1270;36875;-73
2022/01/18 05:15:50;;;;;;;6.00;2.90;;;;;;;-2.60;84.95;97678.07;107409;1270;44779;-73
2022/01/18 05:21:22;;;;;;;7.90;2.80;;;;;;;-2.58;84.82;97683.61;107467;1270;39059;-73
2022/01/18 05:23:54;;;;;;;8.10;2.80;;;;;;;-2.56;84.77;97690.44;107468;1269;35391;-73
2022/01/18 05:26:27;;;;;;;6.60;3.40;;;;;;;-2.53;84.76;97690.84;107450;1270;36020;-73
2022/01/18 05:28:58;;;;;;;8.90;4.60;;;;;;;-2.51;84.62;97690.48;107485;1270;41335;-73
2022/01/18 05:31:29;;;;;;;14.10;4.60;;;;;;;-2.51;84.62;97691.97;107540;1270;31876;-73
2022/01/18 05:34:00;;;;;;;7.80;3.30;;;;;;;-2.51;84.65;97697.55;107418;1270;48523;-73
2022/01/18 05:36:31;;;;;;;8.70;3.80;;;;;;;-2.51;84.77;97702.90;107512;1269;38231;-73
2022/01/18 05:39:02;;;;;;;6.20;4.00;;;;;;;-2.52;84.82;97696.23;107486;1271;37991;-73
2022/01/18 05:41:35;;;;;;;7.40;2.80;;;;;;;-2.52;84.81;97700.25;107499;1269;50603;-73
2022/01/18 05:44:07;;;;;;;11.50;3.90;;;;;;;-2.52;84.98;97685.35;107467;1270;36455;-74
2022/01/18 05:46:38;;;;;;;21.30;5.10;;;;;;;-2.52;85.05;97698.45;107429;1270;37469;-74
2022/01/18 05:49:08;;;;;;;11.20;3.80;;;;;;;-2.53;85.04;97698.63;107429;1270;41521;-74
2022/01/18 05:51:41;;;;;;;10.20;2.90;;;;;;;-2.53;85.17;97705.77;107402;1269;38836;-73
2022/01/18 05:54:12;;;;;;;8.20;2.90;;;;;;;-2.55;85.22;97704.91;107508;1269;34911;-73
2022/01/18 05:56:43;;;;;;;8.00;3.70;;;;;;;-2.57;85.38;97721.70;107447;1271;44181;-74
2022/01/18 05:59:21;;;;;;;10.30;4.10;;;;;;;-2.58;85.45;97712.09;107440;1270;39195;-73
2022/01/18 06:02:01;;;;;;;5.80;3.10;;;;;;;-2.57;85.43;97719.85;107462;1270;31276;-73
2022/01/18 06:07:19;;;;;;;7.20;4.10;;;;;;;-2.55;85.12;97717.89;107538;1270;40578;-73
2022/01/18 06:09:49;;;;;;;9.80;4.20;;;;;;;-2.54;85.21;97722.38;107443;1269;43399;-73
2022/01/18 06:12:20;;;;;;;11.10;4.60;;;;;;;-2.53;85.09;97720.92;107462;1270;39596;-73
2022/01/18 06:14:51;;;;;;;13.00;5.50;;;;;;;-2.53;85.08;97714.76;107389;1270;41401;-73
2022/01/18 06:17:22;;;;;;;8.20;3.50;;;;;;;-2.55;85.09;97724.64;107346;1270;34415;-73
2022/01/18 06:19:53;;;;;;;8.00;2.80;;;;;;;-2.57;85.08;97723.77;107451;1270;32458;-73
2022/01/18 06:22:27;;;;;;;11.20;3.50;;;;;;;-2.58;84.79;97733.90;107530;1270;33282;-73
2022/01/18 06:25:00;;;;;;;10.10;4.00;;;;;;;-2.57;84.99;97742.30;107350;1270;33224;-74
2022/01/18 06:27:31;;;;;;;10.30;4.60;;;;;;;-2.55;84.73;97736.93;107476;1269;47234;-74
2022/01/18 06:30:01;;;;;;;12.20;4.10;;;;;;;-2.55;84.84;97741.77;107472;1269;45655;-73
2022/01/18 06:32:32;;;;;;;10.70;4.40;;;;;;;-2.56;84.78;97735.45;107453;1270;40510;-73
2022/01/18 06:35:03;;;;;;;8.20;3.30;;;;;;;-2.57;84.58;97731.05;107440;1270;39118;-73
2022/01/18 06:37:35;;;;;;;4.60;3.30;;;;;;;-2.58;84.20;97725.08;107435;1270;35565;-73
2022/01/18 06:40:08;;;;;;;6.90;3.50;;;;;;;-2.59;84.09;97732.48;107522;1269;32590;-74
2022/01/18 06:42:39;;;;;;;9.80;3.60;;;;;;;-2.59;84.01;97736.90;107439;1269;34223;-74
2022/01/18 06:45:12;;;;;;;6.10;3.00;;;;;;;-2.59;84.05;97741.22;107270;1270;41618;-74
2022/01/18 06:47:42;;;;;;;10.40;3.20;;;;;;;-2.58;83.68;97752.27;107302;1270;38739;-73
2022/01/18 06:50:13;;;;;;;7.60;2.80;;;;;;;-2.56;83.53;97749.46;107373;1270;31441;-73
2022/01/18 06:52:44;;;;;;;10.40;3.90;;;;;;;-2.55;83.23;97745.08;107342;1271;43936;-73
2022/01/18 06:55:15;;;;;;;10.50;3.00;;;;;;;-2.55;83.16;97749.04;107310;1270;38510;-73
2022/01/18 06:57:46;;;;;;;6.30;3.00;;;;;;;-2.55;83.13;97766.83;107295;1270;41193;-74
2022/01/18 07:00:18;;;;;;;7.40;2.60;;;;;;;-2.54;83.03;97768.51;107340;1270;47024;-73
2022/01/18 07:02:49;;;;;;;11.10;2.60;;;;;;;-2.54;83.08;97767.77;107392;1269;35207;-73
2022/01/18 07:05:20;;;;;;;7.60;3.10;;;;;;;-2.50;82.94;97791.23;106172;1270;1517275;-73
2022/01/18 07:07:51;;;;;;;5.30;3.00;;;;;;;-2.45;82.89;97795.00;107306;1272;43143;-73
2022/01/18 07:10:23;;;;;;;6.10;2.10;;;;;;;-2.42;82.80;97800.67;107341;1270;42754;-73
2022/01/18 07:12:56;;;;;;;8.10;3.00;;;;;;;-2.39;82.43;97797.45;107360;1271;40115;-75
2022/01/18 07:15:27;;;;;;;6.30;3.00;;;;;;;-2.37;82.23;97802.67;107362;1271;40856;-73
2022/01/18 07:17:58;;;;;;;9.70;2.80;;;;;;;-2.29;82.19;97809.56;107305;1270;38366;-73
2022/01/18 07:20:29;;;;;;;4.10;2.50;;;;;;;-2.25;81.71;97808.91;107386;1271;30688;-73
2022/01/18 07:23:00;;;;;;;6.70;3.00;;;;;;;-2.25;81.90;97803.03;107387;1270;39140;-73
2022/01/18 07:25:30;;;;;;;4.90;2.40;;;;;;;-2.27;81.83;97811.52;107311;1270;44108;-73
2022/01/18 07:28:01;;;;;;;6.60;2.30;;;;;;;-2.29;81.76;97813.88;107444;1270;40216;-73
2022/01/18 07:30:32;;;;;;;5.10;2.20;;;;;;;-2.24;81.74;97830.66;107431;1270;38784;-73
2022/01/18 07:33:03;;;;;;;8.50;3.10;;;;;;;-2.15;81.87;97841.27;107383;1270;39106;-73
2022/01/18 07:35:35;;;;;;;6.10;2.60;;;;;;;-2.13;81.47;97837.17;107413;1270;46854;-73
2022/01/18 07:38:12;;;;;;;6.60;2.60;;;;;;;-2.08;81.32;97830.95;107272;1270;39895;-74
2022/01/18 07:40:45;;;;;;;4.20;2.60;;;;;;;-2.03;81.25;97841.04;107317;1270;38278;-73
2022/01/18 07:43:18;;;;;;;7.10;3.00;;;;;;;-2.04;81.25;97836.92;107273;1271;47094;-73
2022/01/18 07:45:52;;;;;;;7.30;2.10;;;;;;;-2.04;81.02;97849.46;107411;1269;42155;-73
2022/01/18 07:48:24;;;;;;;6.40;2.20;;;;;;;-2.03;80.95;97852.20;107473;1270;38674;-73
2022/01/18 07:50:57;;;;;;;5.30;2.50;;;;;;;-1.98;80.88;97858.06;107376;1270;45514;-73
2022/01/18 07:53:28;;;;;;;5.70;2.40;;;;;;;-1.95;80.73;97856.73;107450;1269;40775;-73
2022/01/18 07:55:59;;;;;;;4.70;2.60;;;;;;;-1.95;80.85;97843.59;107430;1269;44536;-73
2022/01/18 07:58:30;;;;;;;10.30;3.30;;;;;;;-1.93;80.82;97846.23;107515;1270;41141;-73
2022/01/18 08:01:01;;;;;;;10.50;3.30;;;;;;;-1.90;80.72;97854.98;107426;1270;41926;-73
2022/01/18 08:03:33;;;;;;;8.30;2.40;;;;;;;-1.92;80.85;97861.98;107529;1270;39509;-73
2022/01/18 08:06:04;;;;;;;6.90;3.10;;;;;;;-1.89;80.86;97870.45;107649;1270;39535;-73
2022/01/18 08:08:37;;;;;;;7.50;3.40;;;;;;;-1.83;80.82;97873.58;107541;1270;35521;-74
2022/01/18 08:11:10;;;;;;;7.10;2.60;;;;;;;-1.84;80.65;97881.62;107415;1269;36787;-74
2022/01/18 08:13:44;;;;;;;11.40;3.80;;;;;;;-1.85;80.72;97878.52;107445;1270;40206;-73
2022/01/18 08:16:44;;;;;;;6.30;2.70;;;;;;;-1.85;80.56;97881.20;107450;1270;36441;-73
2022/01/18 08:19:15;;;;;;;5.60;2.80;;;;;;;-1.81;80.60;97882.02;107428;1269;32602;-74
2022/01/18 08:21:46;;;;;;;5.70;2.70;;;;;;;-1.81;80.92;97889.11;107465;1270;38438;-73
2022/01/18 08:24:17;;;;;;;9.00;2.90;;;;;;;-1.78;80.85;97885.67;107534;1270;35241;-73
2022/01/18 08:26:48;;;;;;;8.50;3.50;;;;;;;-1.74;80.48;97891.05;107504;1270;34542;-74
2022/01/18 08:29:19;;;;;;;6.20;2.20;;;;;;;-1.74;80.65;97898.98;107395;1269;36611;-74
2022/01/18 08:31:50;;;;;;;9.80;3.70;;;;;;;-1.76;80.69;97900.39;107423;1270;33958;-73
2022/01/18 08:34:21;;;;;;;6.50;2.40;;;;;;;-1.74;80.66;97897.19;107438;1269;33077;-74
2022/01/18 08:36:52;;;;;;;14.10;7.10;;;;;;;-1.71;80.59;97904.64;107499;1269;36661;-73
2022/01/18 08:39:24;;;;;;;5.90;2.60;;;;;;;-1.72;80.42;97908.94;107278;1269;39075;-72
2022/01/18 08:41:55;;;;;;;12.30;3.50;;;;;;;-1.75;80.23;97907.89;107432;1270;37853;-74
2022/01/18 08:44:29;;;;;;;9.20;4.40;;;;;;;-1.77;80.59;97912.05;107381;1270;35618;-74
2022/01/18 08:47:04;;;;;;;9.20;4.50;;;;;;;-1.77;80.31;97911.21;107465;1270;42021;-74
2022/01/18 08:49:35;;;;;;;4.70;2.20;;;;;;;-1.73;80.41;97906.93;107455;1269;40352;-74
2022/01/18 08:52:07;;;;;;;10.40;2.50;;;;;;;-1.66;80.36;97913.13;107434;1270;43254;-74
2022/01/18 08:54:39;;;;;;;14.90;3.80;;;;;;;-1.58;80.27;97914.67;107393;1270;43253;-74
2022/01/18 08:57:12;;;;;;;7.00;2.80;;;;;;;-1.54;80.16;97916.62;107333;1270;35944;-74
2022/01/18 08:59:46;;;;;;;10.90;2.50;;;;;;;-1.54;79.85;97911.16;107434;1269;34064;-74
2022/01/18 09:02:17;;;;;;;8.80;3.50;;;;;;;-1.56;79.91;97932.50;107465;1269;37970;-74
2022/01/18 09:04:48;;;;;;;5.60;2.70;;;;;;;-1.59;79.75;97936.94;107492;1269;34702;-74
2022/01/18 09:07:20;;;;;;;17.80;5.90;;;;;;;-1.62;80.02;97938.29;107413;1269;42839;-73
2022/01/18 09:10:02;;;;;;;7.10;4.10;;;;;;;-1.63;80.01;97948.83;107430;1270;36951;-74
2022/01/18 09:12:34;;;;;;;6.60;3.50;;;;;;;-1.63;80.06;97949.70;107539;1269;42456;-74
2022/01/18 09:15:08;;;;;;;5.40;2.30;;;;;;;-1.61;80.13;97950.89;107479;1270;32089;-74
2022/01/18 09:17:41;;;;;;;11.30;3.30;;;;;;;-1.64;80.38;97964.08;107434;1270;39513;-74
2022/01/18 09:20:16;;;;;;;6.40;3.50;;;;;;;-1.64;80.41;97966.33;107433;1269;41809;-74
2022/01/18 09:22:49;;;;;;;8.50;3.20;;;;;;;-1.62;80.25;97967.31;107446;1269;40139;-74
2022/01/18 09:25:22;;;;;;;4.40;2.30;;;;;;;-1.64;80.28;97974.35;107437;1269;42130;-74
2022/01/18 09:27:54;;;;;;;9.10;3.60;;;;;;;-1.70;80.43;97968.19;107386;1269;37770;-73
2022/01/18 09:30:26;;;;;;;7.20;3.70;;;;;;;-1.74;80.42;97975.96;107565;1270;38636;-73
2022/01/18 09:32:59;;;;;;;13.00;4.50;;;;;;;-1.78;80.79;97974.29;107335;1270;41479;-73
2022/01/18 09:35:30;;;;;;;19.90;4.20;;;;;;;-1.83;81.00;97971.48;107408;1269;35431;-74
2022/01/18 09:38:01;;;;;;;8.00;3.30;;;;;;;-1.86;81.25;97979.55;107485;1270;51234;-74
2022/01/18 09:40:37;;;;;;;8.30;2.80;;;;;;;-1.85;81.51;97974.61;107488;1270;31459;-73
2022/01/18 09:43:12;;;;;;;12.30;4.10;;;;;;;-1.85;81.75;97970.97;107541;1270;48575;-74
2022/01/18 09:45:46;;;;;;;10.10;4.80;;;;;;;-1.87;81.98;97978.45;107271;1270;36025;-74
2022/01/18 09:48:17;;;;;;;11.50;4.60;;;;;;;-1.85;81.88;97975.03;107363;1270;45021;-74
2022/01/18 09:50:49;;;;;;;10.40;4.50;;;;;;;-1.82;82.29;97983.32;107362;1270;35513;-73
2022/01/18 09:53:20;;;;;;;8.40;4.00;;;;;;;-1.80;82.46;97959.90;107422;1270;44949;-74
2022/01/18 09:55:52;;;;;;;8.50;4.60;;;;;;;-1.87;82.93;97978.49;107408;1270;49998;-73
2022/01/18 09:58:23;;;;;;;7.90;3.60;;;;;;;-1.88;83.23;97983.81;107417;1270;33532;-74
2022/01/18 10:00:55;;;;;;;12.50;4.90;;;;;;;-1.88;83.59;97980.73;107381;1270;37701;-74
2022/01/18 10:03:35;;;;;;;8.30;4.00;;;;;;;-1.83;83.73;97981.67;107564;1270;31397;-73
2022/01/18 10:06:07;;;;;;;8.10;3.00;;;;;;;-1.76;83.94;97972.84;107555;1270;40168;-74
2022/01/18 10:08:40;;;;;;;9.20;4.80;;;;;;;-1.75;83.89;97973.23;107497;1270;43177;-74
2022/01/18 10:11:14;;;;;;;10.70;3.50;;;;;;;-1.70;83.91;97971.30;107508;1270;34629;-74
2022/01/18 10:13:49;;;;;;;10.30;3.70;;;;;;;-1.64;84.11;97975.35;107428;1269;47974;-74
2022/01/18 10:16:23;;;;;;;11.70;3.80;;;;;;;-1.60;83.99;97976.77;107431;1269;32555;-74
2022/01/18 10:19:02;;;;;;;14.10;5.40;;;;;;;-1.55;83.96;97978.80;107509;1269;34137;-74
2022/01/18 10:21:40;;;;;;;4.80;3.70;;;;;;;-1.51;83.37;97980.58;107474;1269;44573;-74
2022/01/18 10:24:17;;;;;;;13.60;4.10;;;;;;;-1.44;83.47;97983.02;107377;1270;33095;-74
2022/01/18 10:26:50;;;;;;;6.70;3.60;;;;;;;-1.33;83.55;97989.97;107300;1271;38652;-74
2022/01/18 10:29:27;;;;;;;12.70;4.60;;;;;;;-1.33;83.47;97987.10;107478;1269;32682;-74
2022/01/18 10:32:02;;;;;;;11.40;4.30;;;;;;;-1.31;83.69;97990.96;107512;1269;35073;-74
2022/01/18 10:37:25;;;;;;;9.40;3.50;;;;;;;-1.44;83.65;97988.73;107288;1271;36716;-74
2022/01/18 10:39:58;;;;;;;9.40;4.30;;;;;;;-1.46;83.54;97997.06;107372;1270;37492;-74
2022/01/18 10:42:38;;;;;;;10.80;4.70;;;;;;;-1.41;83.60;98010.56;107479;1270;35336;-74
2022/01/18 10:45:22;;;;;;;12.70;5.20;;;;;;;-1.41;83.89;98010.95;107376;1269;42180;-74
2022/01/18 10:47:57;;;;;;;8.10;4.20;;;;;;;-1.43;84.04;98015.80;107287;1270;42807;-74
2022/01/18 10:50:34;;;;;;;10.40;5.30;;;;;;;-1.47;84.01;98012.09;107521;1270;38033;-74
2022/01/18 10:53:17;;;;;;;6.40;3.20;;;;;;;-1.48;83.87;98011.54;107672;1269;36826;-74
2022/01/18 10:55:52;;;;;;;8.90;4.10;;;;;;;-1.41;84.34;98014.25;107325;1269;46098;-74
2022/01/18 10:58:24;;;;;;;10.90;4.70;;;;;;;-1.40;84.24;98018.61;107449;1269;33635;-74
2022/01/18 11:01:16;;;;;;;12.90;5.70;;;;;;;-1.35;84.18;98014.10;107453;1269;36623;-74
2022/01/18 11:04:12;;;;;;;13.70;5.70;;;;;;;-1.27;84.04;98014.23;107381;1269;40186;-74
2022/01/18 11:06:58;;;;;;;12.50;5.20;;;;;;;-1.20;83.77;98019.38;107442;1269;35938;-74
2022/01/18 11:09:30;;;;;;;6.00;3.50;;;;;;;-1.28;83.68;98027.66;107465;1270;35218;-74
2022/01/18 11:12:02;;;;;;;9.40;4.40;;;;;;;-1.27;83.50;98027.92;107469;1270;37804;-73
2022/01/18 11:14:33;;;;;;;15.30;4.10;;;;;;;-1.14;83.57;98030.35;107503;1270;33914;-74
2022/01/18 11:17:06;;;;;;;8.10;4.20;;;;;;;-1.09;83.29;98025.27;107449;1269;31234;-74
2022/01/18 11:19:38;;;;;;;10.80;5.20;;;;;;;-1.10;83.21;98029.75;107382;1269;31101;-74
2022/01/18 11:22:11;;;;;;;5.50;3.40;;;;;;;-1.01;82.93;98027.85;107417;1269;43097;-74
2022/01/18 11:24:45;;;;;;;10.00;5.60;;;;;;;-1.06;82.37;98031.19;107483;1270;35768;-74
2022/01/18 11:27:18;;;;;;;6.60;2.90;;;;;;;-1.13;82.01;98031.99;107365;1270;56242;-73
2022/01/18 11:29:49;;;;;;;7.70;4.00;;;;;;;-1.17;82.20;98032.96;107448;1269;36254;-73
2022/01/18 11:32:23;;;;;;;13.80;4.50;;;;;;;-1.16;81.86;98037.02;107540;1270;43084;-74
2022/01/18 11:35:08;;;;;;;8.10;4.00;;;;;;;-1.16;81.39;98039.62;107363;1269;46214;-74
2022/01/18 11:37:46;;;;;;;6.20;3.10;;;;;;;-1.09;80.88;98045.42;107387;1270;38491;-73
2022/01/18 11:40:19;;;;;;;11.00;4.70;;;;;;;-1.08;80.27;98045.68;107369;1269;37516;-73
2022/01/18 11:42:53;;;;;;;4.30;2.90;;;;;;;-1.08;80.09;98045.81;107415;1269;33668;-73
2022/01/18 11:45:49;;;;;;;7.60;3.80;;;;;;;-1.07;80.03;98048.51;107378;1269;33938;-73
2022/01/18 11:48:23;;;;;;;7.40;3.60;;;;;;;-1.10;79.38;98040.97;107360;1269;42388;-74
2022/01/18 11:51:15;;;;;;;8.50;3.70;;;;;;;-1.19;78.95;98034.30;107465;1270;37464;-73
2022/01/18 11:53:55;;;;;;;8.10;4.20;;;;;;;-1.23;78.70;98037.19;107379;1271;37612;-74
2022/01/18 11:56:37;;;;;;;15.80;5.50;;;;;;;-1.12;78.76;98044.75;107381;1270;39838;-73
2022/01/18 11:59:18;;;;;;;11.70;3.00;;;;;;;-1.05;78.07;98035.09;107460;1270;34037;-74
2022/01/18 12:01:52;;;;;;;7.60;3.60;;;;;;;-1.13;77.06;98044.33;107477;1269;32427;-74
2022/01/18 12:05:01;;;;;;;17.60;8.60;;;;;;;-1.12;76.63;98040.59;107463;1270;32919;-74
2022/01/18 12:07:49;;;;;;;12.50;4.10;;;;;;;-1.16;76.41;98046.73;107560;1270;33794;-74
2022/01/18 12:10:49;;;;;;;6.30;3.30;;;;;;;-1.20;76.64;98051.64;107465;1269;31814;-74
2022/01/18 12:13:36;;;;;;;8.50;4.10;;;;;;;-1.19;76.75;98044.77;107408;1269;38847;-74
2022/01/18 12:16:21;;;;;;;5.20;2.70;;;;;;;-1.13;76.42;98048.46;107487;1270;32543;-75
2022/01/18 12:18:55;;;;;;;10.20;4.20;;;;;;;-1.12;75.99;98049.92;107357;1270;34183;-74
2022/01/18 12:21:31;;;;;;;7.40;3.60;;;;;;;-1.19;75.62;98045.91;107444;1270;38753;-74
2022/01/18 12:24:17;;;;;;;17.10;4.00;;;;;;;-1.05;76.02;98051.05;107521;1269;32136;-74
2022/01/18 12:26:59;;;;;;;9.20;3.80;;;;;;;-1.05;75.28;98039.02;107492;1270;34058;-74
2022/01/18 12:29:48;;;;;;;6.50;3.10;;;;;;;-1.13;74.98;98044.33;107338;1270;32953;-73
2022/01/18 12:32:49;;;;;;;5.10;3.20;;;;;;;-1.08;75.27;98048.80;107463;1269;34121;-74
2022/01/18 12:35:27;;;;;;;8.20;3.80;;;;;;;-1.06;74.99;98052.81;107291;1271;42785;-74
2022/01/18 12:37:58;;;;;;;10.30;2.90;;;;;;;-1.15;74.96;98056.98;107506;1269;34426;-73
2022/01/18 12:40:35;;;;;;;8.60;4.00;;;;;;;-1.20;74.96;98051.27;107425;1269;33056;-74
2022/01/18 12:46:17;;;;;;;9.00;3.40;;;;;;;-1.31;75.02;98073.67;107519;1269;36577;-74
2022/01/18 12:48:49;;;;;;;9.50;4.50;;;;;;;-1.39;75.47;98072.41;107419;1269;31382;-74
2022/01/18 12:51:21;;;;;;;30.20;12.10;;;;;;;-1.47;75.71;98082.90;107417;1270;37763;-74
2022/01/18 12:53:52;;;;;;;8.10;3.60;;;;;;;-1.51;75.72;98088.51;107354;1269;47154;-73